createdAt,value
2018-09-29T00:00:01.042Z,96
2018-09-29T00:01:03.073Z,96
2018-09-29T00:02:05.094Z,96
2018-09-29T00:03:07.168Z,96
2018-09-29T00:04:09.169Z,96
2018-09-29T00:05:11.195Z,97
2018-09-29T00:06:13.226Z,96
2018-09-29T00:07:15.241Z,96
2018-09-29T00:08:17.297Z,96
2018-09-29T00:09:19.303Z,97
2018-09-29T00:10:21.400Z,96
2018-09-29T00:11:23.356Z,97
2018-09-29T00:12:25.377Z,97
2018-09-29T00:13:28.072Z,97
2018-09-29T00:14:30.086Z,97
2018-09-29T00:15:32.128Z,97
2018-09-29T00:16:34.172Z,97
2018-09-29T00:17:36.211Z,97
2018-09-29T00:18:38.236Z,97
2018-09-29T00:19:40.290Z,97
2018-09-29T00:20:42.310Z,97
2018-09-29T00:21:44.336Z,97
2018-09-29T00:22:46.372Z,97
2018-09-29T00:23:48.426Z,97
2018-09-29T00:24:50.724Z,97
2018-09-29T00:25:52.758Z,97
2018-09-29T00:26:54.800Z,97
2018-09-29T00:27:56.815Z,97
2018-09-29T00:28:58.861Z,97
2018-09-29T00:30:01.157Z,97
2018-09-29T00:31:03.212Z,97
2018-09-29T00:32:05.516Z,98
2018-09-29T00:33:07.608Z,98
2018-09-29T00:34:09.619Z,98
2018-09-29T00:35:11.664Z,98
2018-09-29T00:36:13.973Z,98
2018-09-29T00:37:15.997Z,98
2018-09-29T00:38:18.307Z,98
2018-09-29T00:39:20.328Z,98
2018-09-29T00:40:22.658Z,97
2018-09-29T00:41:24.698Z,98
2018-09-29T00:42:27.052Z,98
2018-09-29T00:43:29.066Z,98
2018-09-29T00:44:31.102Z,98
2018-09-29T00:45:33.128Z,98
2018-09-29T00:46:35.157Z,98
2018-09-29T00:47:37.185Z,98
2018-09-29T00:48:39.534Z,98
2018-09-29T00:49:41.845Z,98
2018-09-29T00:50:43.873Z,98
2018-09-29T00:51:46.285Z,98
2018-09-29T00:52:48.307Z,98
2018-09-29T00:53:50.619Z,98
2018-09-29T00:54:52.647Z,98
2018-09-29T00:55:54.674Z,98
2018-09-29T00:56:57.020Z,98
2018-09-29T00:57:59.039Z,99
2018-09-29T00:59:01.090Z,99
2018-09-29T01:00:03.134Z,99
2018-09-29T01:01:05.831Z,99
2018-09-29T01:02:07.909Z,98
2018-09-29T01:03:09.924Z,99
2018-09-29T01:04:11.939Z,99
2018-09-29T01:05:14.247Z,99
2018-09-29T01:06:16.283Z,98
2018-09-29T01:07:18.293Z,98
2018-09-29T01:08:20.327Z,98
2018-09-29T01:09:22.356Z,99
2018-09-29T01:10:24.390Z,99
2018-09-29T01:11:26.705Z,99
2018-09-29T01:12:28.716Z,99
2018-09-29T01:13:30.746Z,99
2018-09-29T01:14:32.779Z,99
2018-09-29T01:15:34.815Z,99
2018-09-29T01:16:36.829Z,99
2018-09-29T01:17:38.854Z,99
2018-09-29T01:18:40.874Z,99
2018-09-29T01:19:42.960Z,99
2018-09-29T01:20:44.990Z,99
2018-09-29T01:21:47.307Z,99
2018-09-29T01:22:49.376Z,99
2018-09-29T01:23:51.688Z,99
2018-09-29T01:24:53.715Z,99
2018-09-29T01:25:56.115Z,100
2018-09-29T01:26:58.187Z,100
2018-09-29T01:28:00.500Z,100
2018-09-29T01:29:02.885Z,99
2018-09-29T01:30:05.485Z,99
2018-09-29T01:31:07.796Z,99
2018-09-29T01:32:09.884Z,99
2018-09-29T01:33:12.186Z,99
2018-09-29T01:34:14.597Z,99
2018-09-29T01:35:17.308Z,100
2018-09-29T01:36:19.323Z,100
2018-09-29T01:37:21.334Z,100
2018-09-29T01:38:23.396Z,100
2018-09-29T01:39:25.426Z,100
2018-09-29T01:40:27.439Z,100
2018-09-29T01:41:29.463Z,100
2018-09-29T01:42:32.165Z,100
2018-09-29T01:43:34.186Z,100
2018-09-29T01:44:36.219Z,100
2018-09-29T01:45:38.323Z,100
2018-09-29T01:46:40.341Z,100
2018-09-29T01:47:42.733Z,100
2018-09-29T01:48:45.151Z,100
2018-09-29T01:49:47.166Z,100
2018-09-29T01:50:49.568Z,100
2018-09-29T01:51:51.589Z,100
2018-09-29T01:52:53.599Z,100
2018-09-29T01:53:55.980Z,100
2018-09-29T01:54:58.005Z,100
2018-09-29T01:56:00.040Z,100
2018-09-29T01:57:02.126Z,100
2018-09-29T01:58:04.162Z,100
2018-09-29T01:59:06.471Z,100
2018-09-29T02:00:08.512Z,100
2018-09-29T02:01:10.537Z,100
2018-09-29T02:02:12.938Z,100
2018-09-29T02:03:15.339Z,100
2018-09-29T02:04:17.757Z,100
2018-09-29T02:05:19.827Z,100
2018-09-29T02:06:22.123Z,100
2018-09-29T02:07:24.141Z,100
2018-09-29T02:08:26.282Z,100
2018-09-29T02:09:28.302Z,100
2018-09-29T02:10:30.624Z,100
2018-09-29T02:11:32.719Z,100
2018-09-29T02:12:34.752Z,100
2018-09-29T02:13:36.762Z,100
2018-09-29T02:14:39.113Z,100
2018-09-29T02:15:41.125Z,100
2018-09-29T02:16:43.139Z,100
2018-09-29T02:17:45.500Z,100
2018-09-29T02:18:47.518Z,100
2018-09-29T02:19:49.545Z,100
2018-09-29T02:20:51.633Z,100
2018-09-29T02:21:53.709Z,100
2018-09-29T02:22:56.127Z,100
2018-09-29T02:23:58.134Z,100
2018-09-29T02:25:00.160Z,100
2018-09-29T02:26:02.252Z,100
2018-09-29T02:27:04.278Z,100
2018-09-29T02:28:06.304Z,100
2018-09-29T02:29:08.426Z,100
2018-09-29T02:30:11.114Z,100
2018-09-29T02:31:13.424Z,100
2018-09-29T02:32:15.732Z,100
2018-09-29T02:33:17.761Z,100
2018-09-29T02:34:20.182Z,100
2018-09-29T02:35:22.197Z,100
2018-09-29T02:36:25.173Z,100
2018-09-29T02:37:27.782Z,100
2018-09-29T02:38:30.103Z,100
2018-09-29T02:39:32.119Z,100
2018-09-29T02:40:34.330Z,100
2018-09-29T02:41:36.354Z,100
2018-09-29T02:42:38.691Z,100
2018-09-29T02:43:40.716Z,100
2018-09-29T02:44:42.742Z,100
2018-09-29T02:45:45.041Z,100
2018-09-29T02:46:47.461Z,100
2018-09-29T02:47:49.485Z,100
2018-09-29T02:48:52.224Z,100
2018-09-29T02:49:54.597Z,100
2018-09-29T02:50:56.617Z,100
2018-09-29T02:51:58.957Z,100
2018-09-29T02:53:01.273Z,100
2018-09-29T02:54:03.694Z,100
2018-09-29T02:55:06.032Z,100
2018-09-29T02:56:08.445Z,100
2018-09-29T02:57:10.470Z,100
2018-09-29T02:58:12.489Z,100
2018-09-29T02:59:14.520Z,100
2018-09-29T03:00:16.822Z,100
2018-09-29T03:01:19.221Z,100
2018-09-29T03:02:21.271Z,100
2018-09-29T03:03:23.702Z,100
2018-09-29T03:04:25.715Z,100
2018-09-29T03:05:27.737Z,100
2018-09-29T03:06:30.195Z,100
2018-09-29T03:07:32.504Z,100
2018-09-29T03:08:34.815Z,100
2018-09-29T03:09:36.837Z,100
2018-09-29T03:10:38.847Z,100
2018-09-29T03:11:41.183Z,100
2018-09-29T03:12:43.345Z,100
2018-09-29T03:13:45.643Z,100
2018-09-29T03:14:47.667Z,100
2018-09-29T03:15:50.091Z,100
2018-09-29T03:16:52.108Z,100
2018-09-29T03:17:54.437Z,100
2018-09-29T03:18:56.470Z,100
2018-09-29T03:19:58.538Z,100
2018-09-29T03:21:00.560Z,100
2018-09-29T03:22:02.579Z,100
2018-09-29T03:23:05.130Z,100
2018-09-29T03:24:07.059Z,100
2018-09-29T03:25:09.362Z,100
2018-09-29T03:26:11.491Z,100
2018-09-29T03:27:13.519Z,100
2018-09-29T03:28:15.531Z,100
2018-09-29T03:29:17.580Z,100
2018-09-29T03:30:19.886Z,100
2018-09-29T03:31:21.979Z,100
2018-09-29T03:32:23.935Z,100
2018-09-29T03:33:25.947Z,100
2018-09-29T03:34:27.961Z,100
2018-09-29T03:35:30.277Z,100
2018-09-29T03:36:32.310Z,100
2018-09-29T03:37:34.324Z,100
2018-09-29T03:38:36.641Z,100
2018-09-29T03:39:38.981Z,100
2018-09-29T03:40:41.375Z,100
2018-09-29T03:41:43.412Z,100
2018-09-29T03:42:45.430Z,100
2018-09-29T03:43:48.110Z,100
2018-09-29T03:44:50.800Z,100
2018-09-29T03:45:52.821Z,100
2018-09-29T03:46:55.147Z,100
2018-09-29T03:47:57.553Z,100
2018-09-29T03:48:59.567Z,100
2018-09-29T03:50:01.591Z,100
2018-09-29T03:51:04.205Z,100
2018-09-29T03:52:06.231Z,100
2018-09-29T03:53:08.238Z,100
2018-09-29T03:54:10.543Z,100
2018-09-29T03:55:12.558Z,100
2018-09-29T03:56:14.882Z,100
2018-09-29T03:57:17.603Z,100
2018-09-29T03:58:19.631Z,100
2018-09-29T03:59:21.652Z,100
2018-09-29T04:00:23.947Z,100
2018-09-29T04:01:25.970Z,100
2018-09-29T04:02:27.990Z,100
2018-09-29T04:03:30.305Z,100
2018-09-29T04:04:32.309Z,100
2018-09-29T04:05:34.377Z,100
2018-09-29T04:06:36.363Z,100
2018-09-29T04:07:38.371Z,100
2018-09-29T04:08:40.386Z,100
2018-09-29T04:09:43.127Z,100
2018-09-29T04:10:45.438Z,100
2018-09-29T04:11:47.760Z,100
2018-09-29T04:12:50.466Z,100
2018-09-29T04:13:53.181Z,100
2018-09-29T04:14:55.159Z,100
2018-09-29T04:15:57.182Z,100
2018-09-29T04:16:59.193Z,100
2018-09-29T04:18:01.900Z,100
2018-09-29T04:19:04.211Z,100
2018-09-29T04:20:06.234Z,100
2018-09-29T04:21:08.252Z,100
2018-09-29T04:22:10.552Z,100
2018-09-29T04:23:12.568Z,100
2018-09-29T04:24:14.583Z,100
2018-09-29T04:25:16.998Z,100
2018-09-29T04:26:19.009Z,100
2018-09-29T04:27:21.905Z,100
2018-09-29T04:28:23.928Z,100
2018-09-29T04:29:25.942Z,100
2018-09-29T04:30:27.976Z,100
2018-09-29T04:31:29.995Z,100
2018-09-29T04:32:32.424Z,100
2018-09-29T04:33:34.443Z,100
2018-09-29T04:34:36.470Z,100
2018-09-29T04:35:38.484Z,100
2018-09-29T04:36:41.070Z,100
2018-09-29T04:37:43.093Z,100
2018-09-29T04:38:45.394Z,100
2018-09-29T04:39:47.695Z,100
2018-09-29T04:40:50.090Z,100
2018-09-29T04:41:52.101Z,100
2018-09-29T04:42:54.131Z,100
2018-09-29T04:43:56.145Z,100
2018-09-29T04:44:58.169Z,100
2018-09-29T04:46:00.189Z,100
2018-09-29T04:47:02.581Z,100
2018-09-29T04:48:04.601Z,100
2018-09-29T04:49:06.920Z,100
2018-09-29T04:50:08.930Z,100
2018-09-29T04:51:11.241Z,100
2018-09-29T04:52:13.650Z,100
2018-09-29T04:53:15.679Z,100
2018-09-29T04:54:17.712Z,100
2018-09-29T04:55:19.728Z,100
2018-09-29T04:56:21.743Z,100
2018-09-29T04:57:23.761Z,100
2018-09-29T04:58:26.105Z,100
2018-09-29T04:59:28.165Z,100
2018-09-29T05:00:30.191Z,100
2018-09-29T05:01:32.495Z,100
2018-09-29T05:02:34.507Z,100
2018-09-29T05:03:36.924Z,100
2018-09-29T05:04:38.938Z,100
2018-09-29T05:05:40.967Z,100
2018-09-29T05:06:42.989Z,100
2018-09-29T05:07:45.016Z,100
2018-09-29T05:08:47.035Z,100
2018-09-29T05:09:49.047Z,100
2018-09-29T05:10:51.359Z,100
2018-09-29T05:11:53.371Z,100
2018-09-29T05:12:55.411Z,100
2018-09-29T05:13:57.464Z,100
2018-09-29T05:14:59.451Z,100
2018-09-29T05:16:01.458Z,100
2018-09-29T05:17:03.480Z,100
2018-09-29T05:18:05.498Z,100
2018-09-29T05:19:07.513Z,100
2018-09-29T05:20:09.928Z,100
2018-09-29T05:21:11.946Z,100
2018-09-29T05:22:13.967Z,100
2018-09-29T05:23:16.005Z,100
2018-09-29T05:24:18.700Z,100
2018-09-29T05:25:21.109Z,100
2018-09-29T05:26:23.183Z,100
2018-09-29T05:27:25.485Z,100
2018-09-29T05:28:27.506Z,100
2018-09-29T05:29:29.529Z,100
2018-09-29T05:30:31.564Z,100
2018-09-29T05:31:33.945Z,100
2018-09-29T05:32:35.973Z,100
2018-09-29T05:33:37.990Z,100
2018-09-29T05:34:40.010Z,100
2018-09-29T05:35:42.035Z,100
2018-09-29T05:36:44.056Z,100
2018-09-29T05:37:46.066Z,100
2018-09-29T05:38:48.078Z,100
2018-09-29T05:39:50.106Z,100
2018-09-29T05:40:52.113Z,100
2018-09-29T05:41:54.811Z,100
2018-09-29T05:42:56.837Z,100
2018-09-29T05:43:59.133Z,100
2018-09-29T05:45:01.166Z,100
2018-09-29T05:46:03.463Z,100
2018-09-29T05:47:05.762Z,100
2018-09-29T05:48:07.814Z,100
2018-09-29T05:49:09.806Z,100
2018-09-29T05:50:12.209Z,100
2018-09-29T05:51:14.228Z,100
2018-09-29T05:52:16.252Z,100
2018-09-29T05:53:18.260Z,100
2018-09-29T05:54:20.277Z,100
2018-09-29T05:55:22.289Z,100
2018-09-29T05:56:24.623Z,100
2018-09-29T05:57:26.640Z,100
2018-09-29T05:58:28.661Z,100
2018-09-29T05:59:30.830Z,100
2018-09-29T06:00:32.938Z,100
2018-09-29T06:01:34.873Z,100
2018-09-29T06:02:36.887Z,100
2018-09-29T06:03:39.207Z,100
2018-09-29T06:04:41.588Z,100
2018-09-29T06:05:44.047Z,100
2018-09-29T06:06:46.050Z,100
2018-09-29T06:07:48.061Z,100
2018-09-29T06:08:50.084Z,100
2018-09-29T06:09:52.404Z,100
2018-09-29T06:10:54.438Z,100
2018-09-29T06:11:56.443Z,100
2018-09-29T06:12:58.525Z,100
2018-09-29T06:14:00.764Z,100
2018-09-29T06:15:02.801Z,100
2018-09-29T06:16:04.826Z,100
2018-09-29T06:17:06.843Z,100
2018-09-29T06:18:08.873Z,100
2018-09-29T06:19:11.561Z,100
2018-09-29T06:20:13.855Z,100
2018-09-29T06:21:15.865Z,100
2018-09-29T06:22:17.895Z,100
2018-09-29T06:23:20.209Z,100
2018-09-29T06:24:22.515Z,100
2018-09-29T06:25:24.542Z,100
2018-09-29T06:26:27.221Z,100
2018-09-29T06:27:29.248Z,100
2018-09-29T06:28:31.272Z,100
2018-09-29T06:29:33.566Z,100
2018-09-29T06:30:35.593Z,100
2018-09-29T06:31:37.612Z,100
2018-09-29T06:32:40.022Z,100
2018-09-29T06:33:42.035Z,100
2018-09-29T06:34:44.061Z,100
2018-09-29T06:35:46.088Z,100
2018-09-29T06:36:48.120Z,100
2018-09-29T06:37:50.120Z,100
2018-09-29T06:38:52.157Z,100
2018-09-29T06:39:54.460Z,100
2018-09-29T06:40:57.008Z,100
2018-09-29T06:41:58.990Z,100
2018-09-29T06:43:01.002Z,100
2018-09-29T06:44:03.029Z,100
2018-09-29T06:45:05.037Z,100
2018-09-29T06:46:07.067Z,100
2018-09-29T06:47:09.076Z,100
2018-09-29T06:48:11.548Z,100
2018-09-29T06:49:13.510Z,100
2018-09-29T06:50:15.524Z,100
2018-09-29T06:51:17.857Z,100
2018-09-29T06:52:19.874Z,100
2018-09-29T06:53:21.888Z,100
2018-09-29T06:54:23.929Z,100
2018-09-29T06:55:25.934Z,100
2018-09-29T06:56:27.948Z,100
2018-09-29T06:57:29.968Z,100
2018-09-29T06:58:31.997Z,100
2018-09-29T06:59:34.005Z,100
2018-09-29T07:00:36.028Z,100
2018-09-29T07:01:38.056Z,100
2018-09-29T07:02:40.063Z,100
2018-09-29T07:03:42.090Z,100
2018-09-29T07:04:44.119Z,100
2018-09-29T07:05:46.136Z,100
2018-09-29T07:06:48.163Z,100
2018-09-29T07:07:50.179Z,100
2018-09-29T07:08:52.194Z,99
2018-09-29T07:09:54.207Z,99
2018-09-29T07:10:56.224Z,98
2018-09-29T07:11:58.254Z,98
2018-09-29T07:13:00.758Z,98
2018-09-29T07:14:02.702Z,98
2018-09-29T07:15:04.728Z,98
2018-09-29T07:16:06.743Z,97
2018-09-29T07:17:08.771Z,97
2018-09-29T07:18:10.789Z,97
2018-09-29T07:19:12.822Z,97
2018-09-29T07:20:14.834Z,97
2018-09-29T07:21:17.150Z,96
2018-09-29T07:22:19.185Z,96
2018-09-29T07:23:21.483Z,95
2018-09-29T07:24:23.901Z,95
2018-09-29T07:25:25.970Z,94
2018-09-29T07:26:28.342Z,94
2018-09-29T07:27:31.029Z,92
2018-09-29T07:28:33.070Z,91
2018-09-29T07:29:35.081Z,91
2018-09-29T07:30:37.105Z,90
2018-09-29T07:31:39.414Z,88
2018-09-29T07:32:41.432Z,87
2018-09-29T07:33:43.467Z,88
2018-09-29T07:34:45.495Z,87
2018-09-29T07:35:47.512Z,86
2018-09-29T07:36:49.823Z,86
2018-09-29T07:37:51.848Z,85
2018-09-29T07:38:53.871Z,84
2018-09-29T07:39:55.900Z,83
2018-09-29T07:40:58.215Z,84
2018-09-29T07:42:00.225Z,82
2018-09-29T07:43:02.243Z,83
2018-09-29T07:44:04.571Z,82
2018-09-29T07:45:06.976Z,81
2018-09-29T07:46:09.007Z,80
2018-09-29T07:47:11.327Z,81
2018-09-29T07:48:13.731Z,81
2018-09-29T07:49:15.876Z,79
2018-09-29T07:50:18.716Z,79
2018-09-29T07:51:20.746Z,78
2018-09-29T07:52:22.761Z,78
2018-09-29T07:53:24.796Z,79
2018-09-29T07:54:26.822Z,77
2018-09-29T07:55:29.126Z,77
2018-09-29T07:56:31.444Z,76
2018-09-29T07:57:33.743Z,77
2018-09-29T07:58:35.776Z,76
2018-09-29T07:59:37.812Z,76
2018-09-29T08:00:39.839Z,75
2018-09-29T08:01:42.157Z,76
2018-09-29T08:02:44.190Z,76
2018-09-29T08:03:46.605Z,75
2018-09-29T08:04:49.009Z,73
2018-09-29T08:05:51.330Z,73
2018-09-29T08:06:53.356Z,73
2018-09-29T08:07:55.377Z,74
2018-09-29T08:08:57.416Z,73
2018-09-29T08:09:59.822Z,72
2018-09-29T08:11:01.844Z,71
2018-09-29T08:12:03.878Z,69
2018-09-29T08:13:06.287Z,71
2018-09-29T08:14:08.323Z,72
2018-09-29T08:15:10.642Z,71
2018-09-29T08:16:13.085Z,71
2018-09-29T08:17:15.379Z,69
2018-09-29T08:18:17.420Z,69
2018-09-29T08:19:19.444Z,70
2018-09-29T08:20:21.476Z,69
2018-09-29T08:21:23.513Z,69
2018-09-29T08:22:25.535Z,68
2018-09-29T08:23:27.569Z,68
2018-09-29T08:24:29.597Z,69
2018-09-29T08:25:31.640Z,70
2018-09-29T08:26:34.051Z,69
2018-09-29T08:27:36.076Z,69
2018-09-29T08:28:38.103Z,68
2018-09-29T08:29:40.143Z,69
2018-09-29T08:30:42.463Z,69
2018-09-29T08:31:44.500Z,68
2018-09-29T08:32:46.543Z,67
2018-09-29T08:33:48.579Z,66
2018-09-29T08:34:50.598Z,68
2018-09-29T08:35:52.922Z,66
2018-09-29T08:36:54.957Z,66
2018-09-29T08:37:57.522Z,66
2018-09-29T08:38:59.565Z,66
2018-09-29T08:40:01.592Z,67
2018-09-29T08:41:03.920Z,68
2018-09-29T08:42:05.966Z,67
2018-09-29T08:43:08.004Z,66
2018-09-29T08:44:10.032Z,64
2018-09-29T08:45:12.067Z,62
2018-09-29T08:46:14.101Z,64
2018-09-29T08:47:16.148Z,64
2018-09-29T08:48:18.189Z,64
2018-09-29T08:49:20.619Z,63
2018-09-29T08:50:22.647Z,64
2018-09-29T08:51:25.074Z,63
2018-09-29T08:52:27.103Z,62
2018-09-29T08:53:29.779Z,63
2018-09-29T08:54:32.418Z,62
2018-09-29T08:55:34.467Z,62
2018-09-29T08:56:36.518Z,62
2018-09-29T08:57:38.862Z,62
2018-09-29T08:58:40.888Z,61
2018-09-29T08:59:42.946Z,63
2018-09-29T09:00:44.995Z,62
2018-09-29T09:01:47.041Z,63
2018-09-29T09:02:49.116Z,59
2018-09-29T09:03:51.208Z,59
2018-09-29T09:04:53.199Z,62
2018-09-29T09:05:55.240Z,62
2018-09-29T09:06:57.562Z,63
2018-09-29T09:07:59.590Z,63
2018-09-29T09:09:01.632Z,61
2018-09-29T09:10:03.682Z,61
2018-09-29T09:11:06.100Z,63
2018-09-29T09:12:08.172Z,61
2018-09-29T09:13:10.204Z,60
2018-09-29T09:14:12.252Z,58
2018-09-29T09:15:14.314Z,59
2018-09-29T09:16:16.680Z,60
2018-09-29T09:17:19.316Z,58
2018-09-29T09:18:21.368Z,60
2018-09-29T09:19:23.401Z,59
2018-09-29T09:20:25.442Z,59
2018-09-29T09:21:27.498Z,58
2018-09-29T09:22:29.540Z,59
2018-09-29T09:23:31.666Z,57
2018-09-29T09:24:34.003Z,57
2018-09-29T09:25:36.037Z,57
2018-09-29T09:26:38.094Z,56
2018-09-29T09:27:40.422Z,57
2018-09-29T09:28:42.448Z,58
2018-09-29T09:29:44.518Z,56
2018-09-29T09:30:46.545Z,56
2018-09-29T09:31:48.623Z,56
2018-09-29T09:32:50.938Z,55
2018-09-29T09:33:53.705Z,54
2018-09-29T09:34:55.796Z,53
2018-09-29T09:35:57.833Z,54
2018-09-29T09:36:59.888Z,54
2018-09-29T09:38:01.951Z,54
2018-09-29T09:39:04.285Z,54
2018-09-29T09:40:06.318Z,56
2018-09-29T09:41:08.386Z,54
2018-09-29T09:42:10.805Z,54
2018-09-29T09:43:12.840Z,54
2018-09-29T09:44:14.870Z,53
2018-09-29T09:45:16.920Z,55
2018-09-29T09:46:18.969Z,56
2018-09-29T09:47:21.003Z,55
2018-09-29T09:48:23.071Z,53
2018-09-29T09:49:25.606Z,55
2018-09-29T09:50:27.696Z,52
2018-09-29T09:51:29.735Z,53
2018-09-29T09:52:31.769Z,53
2018-09-29T09:53:33.836Z,54
2018-09-29T09:54:36.163Z,53
2018-09-29T09:55:38.592Z,55
2018-09-29T09:56:40.624Z,51
2018-09-29T09:57:43.266Z,50
2018-09-29T09:58:45.301Z,50
2018-09-29T09:59:47.341Z,52
2018-09-29T10:00:50.100Z,50
2018-09-29T10:01:52.127Z,52
2018-09-29T10:02:54.197Z,53
2018-09-29T10:03:57.278Z,54
2018-09-29T10:04:59.338Z,54
2018-09-29T10:06:01.372Z,51
2018-09-29T10:07:03.777Z,48
2018-09-29T10:08:05.824Z,49
2018-09-29T10:09:07.866Z,47
2018-09-29T10:10:09.918Z,49
2018-09-29T10:11:12.345Z,47
2018-09-29T10:12:14.679Z,48
2018-09-29T10:13:16.716Z,47
2018-09-29T10:14:19.154Z,48
2018-09-29T10:15:21.197Z,48
2018-09-29T10:16:23.251Z,48
2018-09-29T10:17:26.025Z,47
2018-09-29T10:18:27.997Z,47
2018-09-29T10:19:30.373Z,48
2018-09-29T10:20:32.436Z,49
2018-09-29T10:21:34.479Z,48
2018-09-29T10:22:36.532Z,49
2018-09-29T10:23:38.961Z,48
2018-09-29T10:24:41.001Z,46
2018-09-29T10:25:43.046Z,48
2018-09-29T10:26:45.413Z,50
2018-09-29T10:27:47.597Z,48
2018-09-29T10:28:49.979Z,49
2018-09-29T10:29:52.035Z,46
2018-09-29T10:30:54.067Z,46
2018-09-29T10:31:56.143Z,47
2018-09-29T10:32:58.576Z,49
2018-09-29T10:34:00.902Z,47
2018-09-29T10:35:03.106Z,47
2018-09-29T10:36:05.253Z,47
2018-09-29T10:37:07.746Z,48
2018-09-29T10:38:09.782Z,47
2018-09-29T10:39:11.829Z,48
2018-09-29T10:40:13.869Z,48
2018-09-29T10:41:15.903Z,49
2018-09-29T10:42:17.949Z,48
2018-09-29T10:43:19.978Z,46
2018-09-29T10:44:22.419Z,45
2018-09-29T10:45:24.474Z,46
2018-09-29T10:46:26.549Z,46
2018-09-29T10:47:28.626Z,47
2018-09-29T10:48:30.690Z,46
2018-09-29T10:49:32.748Z,47
2018-09-29T10:50:34.800Z,47
2018-09-29T10:51:36.903Z,48
2018-09-29T10:52:38.938Z,47
2018-09-29T10:53:40.977Z,46
2018-09-29T10:54:43.027Z,45
2018-09-29T10:55:45.063Z,45
2018-09-29T10:56:47.393Z,45
2018-09-29T10:57:49.430Z,46
2018-09-29T10:58:51.632Z,44
2018-09-29T10:59:53.722Z,45
2018-09-29T11:00:55.760Z,46
2018-09-29T11:01:57.797Z,46
2018-09-29T11:02:59.856Z,46
2018-09-29T11:04:02.279Z,48
2018-09-29T11:05:04.823Z,48
2018-09-29T11:06:06.783Z,48
2018-09-29T11:07:08.818Z,49
2018-09-29T11:08:10.868Z,50
2018-09-29T11:09:13.203Z,49
2018-09-29T11:10:15.252Z,46
2018-09-29T11:11:17.579Z,48
2018-09-29T11:12:19.736Z,48
2018-09-29T11:13:21.959Z,49
2018-09-29T11:14:24.848Z,46
2018-09-29T11:15:26.878Z,43
2018-09-29T11:16:28.908Z,44
2018-09-29T11:17:30.973Z,43
2018-09-29T11:18:33.025Z,42
2018-09-29T11:19:35.115Z,42
2018-09-29T11:20:37.178Z,43
2018-09-29T11:21:39.211Z,42
2018-09-29T11:22:41.251Z,45
2018-09-29T11:23:43.958Z,45
2018-09-29T11:24:46.008Z,45
2018-09-29T11:25:48.043Z,46
2018-09-29T11:26:50.077Z,45
2018-09-29T11:27:52.231Z,45
2018-09-29T11:28:54.456Z,44
2018-09-29T11:29:56.883Z,44
2018-09-29T11:30:59.322Z,44
2018-09-29T11:32:01.359Z,47
2018-09-29T11:33:03.412Z,46
2018-09-29T11:34:05.844Z,45
2018-09-29T11:35:07.895Z,46
2018-09-29T11:36:10.218Z,46
2018-09-29T11:37:12.249Z,47
2018-09-29T11:38:14.578Z,47
2018-09-29T11:39:17.463Z,47
2018-09-29T11:40:19.485Z,49
2018-09-29T11:41:21.820Z,49
2018-09-29T11:42:23.858Z,50
2018-09-29T11:43:26.197Z,50
2018-09-29T11:44:28.224Z,49
2018-09-29T11:45:30.562Z,49
2018-09-29T11:46:32.594Z,51
2018-09-29T11:47:34.918Z,48
2018-09-29T11:48:36.959Z,49
2018-09-29T11:49:38.985Z,51
2018-09-29T11:50:41.027Z,51
2018-09-29T11:51:43.083Z,49
2018-09-29T11:52:45.126Z,48
2018-09-29T11:53:47.157Z,50
2018-09-29T11:54:49.200Z,51
2018-09-29T11:55:52.238Z,50
2018-09-29T11:56:54.465Z,50
2018-09-29T11:57:56.901Z,50
2018-09-29T11:58:58.942Z,51
2018-09-29T12:00:00.974Z,51
2018-09-29T12:01:03.092Z,51
2018-09-29T12:02:05.856Z,51
2018-09-29T12:03:07.859Z,50
2018-09-29T12:04:09.893Z,49
2018-09-29T12:05:12.260Z,51
2018-09-29T12:06:14.353Z,51
2018-09-29T12:07:16.399Z,51
2018-09-29T12:08:19.168Z,49
2018-09-29T12:09:21.484Z,49
2018-09-29T12:10:23.813Z,49
2018-09-29T12:11:25.843Z,51
2018-09-29T12:12:27.874Z,50
2018-09-29T12:13:29.902Z,51
2018-09-29T12:14:32.233Z,52
2018-09-29T12:15:34.552Z,50
2018-09-29T12:16:36.594Z,50
2018-09-29T12:17:38.626Z,51
2018-09-29T12:18:40.669Z,50
2018-09-29T12:19:42.981Z,51
2018-09-29T12:20:45.017Z,52
2018-09-29T12:21:47.444Z,50
2018-09-29T12:22:49.471Z,50
2018-09-29T12:23:51.801Z,51
2018-09-29T12:24:53.853Z,50
2018-09-29T12:25:55.892Z,50
2018-09-29T12:26:57.916Z,50
2018-09-29T12:27:59.959Z,49
2018-09-29T12:29:01.996Z,50
2018-09-29T12:30:04.026Z,50
2018-09-29T12:31:06.861Z,49
2018-09-29T12:32:08.887Z,49
2018-09-29T12:33:10.918Z,49
2018-09-29T12:34:12.963Z,49
2018-09-29T12:35:14.993Z,50
2018-09-29T12:36:17.036Z,50
2018-09-29T12:37:19.445Z,51
2018-09-29T12:38:21.387Z,51
2018-09-29T12:39:23.426Z,51
2018-09-29T12:40:25.465Z,51
2018-09-29T12:41:27.508Z,53
2018-09-29T12:42:29.533Z,54
2018-09-29T12:43:31.581Z,53
2018-09-29T12:44:34.135Z,51
2018-09-29T12:45:35.949Z,51
2018-09-29T12:46:38.276Z,51
2018-09-29T12:47:40.382Z,51
2018-09-29T12:48:42.342Z,51
2018-09-29T12:49:44.372Z,51
2018-09-29T12:50:46.728Z,53
2018-09-29T12:51:49.150Z,53
2018-09-29T12:52:51.142Z,53
2018-09-29T12:53:53.180Z,53
2018-09-29T12:54:55.211Z,51
2018-09-29T12:55:57.547Z,52
2018-09-29T12:56:59.577Z,51
2018-09-29T12:58:01.604Z,52
2018-09-29T12:59:04.135Z,52
2018-09-29T13:00:06.140Z,51
2018-09-29T13:01:08.476Z,54
2018-09-29T13:02:10.800Z,52
2018-09-29T13:03:12.842Z,51
2018-09-29T13:04:14.867Z,53
2018-09-29T13:05:17.022Z,54
2018-09-29T13:06:18.942Z,54
2018-09-29T13:07:20.964Z,53
2018-09-29T13:08:23.002Z,52
2018-09-29T13:09:25.043Z,51
2018-09-29T13:10:27.081Z,54
2018-09-29T13:11:29.125Z,53
2018-09-29T13:12:31.438Z,52
2018-09-29T13:13:33.462Z,54
2018-09-29T13:14:35.779Z,55
2018-09-29T13:15:37.823Z,52
2018-09-29T13:16:40.489Z,54
2018-09-29T13:17:42.522Z,52
2018-09-29T13:18:44.568Z,53
2018-09-29T13:19:46.596Z,52
2018-09-29T13:20:48.647Z,51
2018-09-29T13:21:50.674Z,51
2018-09-29T13:22:52.741Z,52
2018-09-29T13:23:54.753Z,52
2018-09-29T13:24:56.797Z,52
2018-09-29T13:25:58.827Z,52
2018-09-29T13:27:00.854Z,53
2018-09-29T13:28:03.173Z,53
2018-09-29T13:29:05.199Z,55
2018-09-29T13:30:07.226Z,53
2018-09-29T13:31:09.540Z,53
2018-09-29T13:32:11.859Z,52
2018-09-29T13:33:13.901Z,53
2018-09-29T13:34:16.224Z,54
2018-09-29T13:35:18.252Z,53
2018-09-29T13:36:20.294Z,52
2018-09-29T13:37:22.316Z,53
2018-09-29T13:38:24.353Z,53
2018-09-29T13:39:26.390Z,54
2018-09-29T13:40:28.805Z,55
2018-09-29T13:41:31.131Z,54
2018-09-29T13:42:33.167Z,55
2018-09-29T13:43:35.198Z,53
2018-09-29T13:44:37.821Z,53
2018-09-29T13:45:39.850Z,52
2018-09-29T13:46:41.879Z,52
2018-09-29T13:47:44.580Z,53
2018-09-29T13:48:46.626Z,52
2018-09-29T13:49:49.230Z,53
2018-09-29T13:50:51.271Z,54
2018-09-29T13:51:53.308Z,53
2018-09-29T13:52:55.334Z,52
2018-09-29T13:53:57.380Z,52
2018-09-29T13:54:59.428Z,52
2018-09-29T13:56:01.474Z,53
2018-09-29T13:57:03.782Z,52
2018-09-29T13:58:06.117Z,52
2018-09-29T13:59:08.423Z,53
2018-09-29T14:00:10.455Z,53
2018-09-29T14:01:12.495Z,53
2018-09-29T14:02:14.973Z,54
2018-09-29T14:03:16.966Z,53
2018-09-29T14:04:19.003Z,53
2018-09-29T14:05:21.351Z,54
2018-09-29T14:06:23.374Z,53
2018-09-29T14:07:25.415Z,52
2018-09-29T14:08:27.929Z,53
2018-09-29T14:09:29.915Z,55
2018-09-29T14:10:31.940Z,53
2018-09-29T14:11:33.980Z,53
2018-09-29T14:12:36.019Z,53
2018-09-29T14:13:38.041Z,53
2018-09-29T14:14:40.084Z,54
2018-09-29T14:15:42.688Z,54
2018-09-29T14:16:44.725Z,53
2018-09-29T14:17:47.151Z,54
2018-09-29T14:18:49.181Z,55
2018-09-29T14:19:52.020Z,55
2018-09-29T14:20:54.024Z,55
2018-09-29T14:21:56.064Z,54
2018-09-29T14:22:58.090Z,54
2018-09-29T14:24:01.365Z,54
2018-09-29T14:25:04.316Z,55
2018-09-29T14:26:06.926Z,54
2018-09-29T14:27:08.973Z,54
2018-09-29T14:28:11.001Z,54
2018-09-29T14:29:13.350Z,54
2018-09-29T14:30:15.799Z,54
2018-09-29T14:31:17.716Z,53
2018-09-29T14:32:19.739Z,54
2018-09-29T14:33:21.774Z,56